Time;durP1;ratioP1;P1;durP2;ratioP2;P2;SDS_P1;SDS_P2;PMS_P1;PMS_P2;Temp;Humidity;BMP_temperature;BMP_pressure;BME280_temperature;BME280_humidity;BME280_pressure;Samples;Min_cycle;Max_cycle;Signal;HPM_P1;HPM_P2
2024/03/18 00:01:32;;;;;;;28.27;12.90;;;;;;;6.14;69.07;94889.41;5153320;27;20030;-76
2024/03/18 00:03:57;;;;;;;37.28;16.05;;;;;;;5.71;69.95;94868.91;5155456;27;20125;-75
2024/03/18 00:06:23;;;;;;;28.05;13.88;;;;;;;5.90;70.43;94885.78;5174454;27;20083;-76
2024/03/18 00:08:48;;;;;;;13.85;9.10;;;;;;;5.93;69.83;94891.59;5155559;27;20037;-75
2024/03/18 00:11:14;;;;;;;18.90;11.00;;;;;;;5.48;71.07;94877.22;5152809;27;20030;-75
2024/03/18 00:13:39;;;;;;;10.23;6.78;;;;;;;5.65;71.48;94887.31;5138312;27;20484;-75
2024/03/18 00:16:05;;;;;;;11.32;7.05;;;;;;;5.74;71.33;94881.59;5174194;27;20041;-76
2024/03/18 00:18:30;;;;;;;7.70;5.18;;;;;;;5.71;70.43;94870.63;5143021;27;20031;-75
2024/03/18 00:20:56;;;;;;;7.82;5.45;;;;;;;5.47;70.05;94878.97;5171372;27;20047;-76
2024/03/18 00:23:21;;;;;;;6.63;5.10;;;;;;;5.34;69.92;94867.75;5137984;27;20026;-75
2024/03/18 00:25:47;;;;;;;7.15;5.07;;;;;;;5.18;70.79;94872.19;5137030;27;20041;-75
2024/03/18 00:28:13;;;;;;;7.90;5.65;;;;;;;5.10;71.29;94859.81;5152601;27;20494;-76
2024/03/18 00:30:39;;;;;;;9.23;6.63;;;;;;;4.88;72.57;94865.41;5174135;27;20147;-76
2024/03/18 00:33:04;;;;;;;10.90;5.38;;;;;;;4.90;73.18;94848.97;5171276;27;20026;-75
2024/03/18 00:35:30;;;;;;;6.80;4.65;;;;;;;4.93;73.19;94864.22;5171703;27;20057;-75
2024/03/18 00:37:55;;;;;;;6.57;4.95;;;;;;;4.92;72.90;94861.72;5135216;27;20050;-75
2024/03/18 00:40:20;;;;;;;8.80;5.95;;;;;;;4.78;73.35;94862.53;5136470;27;20041;-75
2024/03/18 00:42:47;;;;;;;9.95;7.18;;;;;;;4.51;74.30;94861.59;5155002;27;20554;-75
2024/03/18 00:45:14;;;;;;;8.48;6.53;;;;;;;4.50;74.85;94859.94;5137950;27;20045;-76
2024/03/18 00:47:40;;;;;;;8.85;6.05;;;;;;;4.54;74.12;94861.41;5137867;27;20057;-75
2024/03/18 00:50:10;;;;;;;8.60;6.43;;;;;;;4.65;73.91;94853.88;5137785;27;20031;-75
2024/03/18 00:52:36;;;;;;;8.27;5.78;;;;;;;4.62;74.38;94844.59;5138316;27;20038;-75
2024/03/18 00:55:02;;;;;;;8.18;6.07;;;;;;;4.55;75.32;94850.22;5136633;27;20106;-75
2024/03/18 00:57:27;;;;;;;7.82;5.68;;;;;;;4.51;75.49;94852.13;5137413;27;20082;-76
2024/03/18 00:59:53;;;;;;;21.50;10.45;;;;;;;4.40;75.09;94850.19;5154711;27;20511;-75
2024/03/18 01:02:18;;;;;;;24.13;9.93;;;;;;;4.31;75.59;94839.59;5155105;27;20038;-75
2024/03/18 01:04:44;;;;;;;16.05;8.25;;;;;;;4.14;75.74;94838.00;5173160;27;20038;-75
2024/03/18 01:07:10;;;;;;;9.27;6.15;;;;;;;4.27;75.09;94849.25;5139314;27;20034;-75
2024/03/18 01:09:37;;;;;;;10.10;6.85;;;;;;;3.94;76.05;94849.41;5099125;27;20027;-75
2024/03/18 01:12:03;;;;;;;9.13;6.70;;;;;;;3.88;76.70;94832.59;5134294;27;20148;-75
2024/03/18 01:14:28;;;;;;;10.05;7.32;;;;;;;3.92;77.39;94846.91;5116912;27;20220;-75
2024/03/18 01:16:53;;;;;;;14.27;9.35;;;;;;;3.87;77.64;94838.63;5152778;27;20037;-75
2024/03/18 01:19:19;;;;;;;18.00;11.02;;;;;;;3.77;78.23;94830.63;5152486;27;20385;-75
2024/03/18 01:21:44;;;;;;;17.73;10.88;;;;;;;3.53;79.42;94831.97;5133898;27;20545;-75
2024/03/18 01:24:10;;;;;;;30.35;11.02;;;;;;;3.68;78.10;94835.47;5152328;27;20027;-75
2024/03/18 01:26:36;;;;;;;8.38;5.53;;;;;;;3.63;78.84;94837.44;5116945;27;20389;-76
2024/03/18 01:29:02;;;;;;;7.18;5.65;;;;;;;3.93;77.35;94840.06;5134013;27;20023;-75
2024/03/18 01:31:27;;;;;;;9.10;5.97;;;;;;;3.73;77.02;94834.28;5099735;27;20034;-75
2024/03/18 01:33:53;;;;;;;7.70;5.25;;;;;;;3.80;78.03;94834.75;5099650;27;20030;-76
2024/03/18 01:36:18;;;;;;;7.38;4.95;;;;;;;3.89;78.04;94829.09;5153296;27;20502;-75
2024/03/18 01:38:43;;;;;;;10.30;7.15;;;;;;;3.76;78.72;94828.97;5137720;27;20059;-75
2024/03/18 01:41:09;;;;;;;9.98;5.88;;;;;;;3.96;78.14;94834.75;5137671;27;20050;-75
2024/03/18 01:43:38;;;;;;;8.52;5.22;;;;;;;3.78;78.05;94816.03;5103288;27;20119;-76
2024/03/18 01:46:13;;;;;;;9.73;6.05;;;;;;;3.69;79.01;94822.50;5103444;27;20030;-75
2024/03/18 01:48:38;;;;;;;13.75;7.03;;;;;;;3.89;77.91;94826.53;5120656;27;20072;-76
2024/03/18 01:51:03;;;;;;;8.60;6.43;;;;;;;3.66;79.13;94827.00;5137522;27;20027;-75
2024/03/18 01:53:29;;;;;;;11.65;7.38;;;;;;;3.37;80.48;94824.25;5120216;27;20033;-76
2024/03/18 01:55:54;;;;;;;53.33;25.02;;;;;;;3.33;79.31;94817.66;5156268;27;20027;-75
2024/03/18 01:58:21;;;;;;;37.60;16.95;;;;;;;3.46;79.76;94818.66;5120115;27;20050;-75
2024/03/18 02:00:47;;;;;;;49.42;20.23;;;;;;;3.24;80.42;94808.72;5120789;27;20030;-75
2024/03/18 02:03:12;;;;;;;25.70;12.45;;;;;;;3.22;80.28;94807.13;5119964;27;20026;-75
2024/03/18 02:05:38;;;;;;;13.95;8.10;;;;;;;3.21;80.48;94795.22;5120133;27;20570;-76
2024/03/18 02:08:04;;;;;;;13.13;6.55;;;;;;;3.16;81.37;94802.34;5120013;27;20050;-75
2024/03/18 02:10:29;;;;;;;14.25;7.43;;;;;;;3.25;81.09;94806.97;5137049;27;20189;-75
2024/03/18 02:13:02;;;;;;;15.88;8.80;;;;;;;3.07;81.04;94801.91;5137018;27;20084;-75
2024/03/18 02:15:28;;;;;;;12.00;7.40;;;;;;;3.35;80.15;94810.69;5108421;27;20134;-75
2024/03/18 02:17:54;;;;;;;10.63;7.00;;;;;;;3.18;80.86;94797.97;5127836;27;20030;-75
2024/03/18 02:20:20;;;;;;;7.60;5.53;;;;;;;3.27;79.31;94789.75;5114210;27;20066;-75
2024/03/18 02:22:46;;;;;;;7.78;5.40;;;;;;;3.38;79.09;94802.00;5115348;27;20023;-75
2024/03/18 02:25:11;;;;;;;7.43;4.90;;;;;;;3.09;79.64;94789.00;5115303;27;20458;-75
2024/03/18 02:27:37;;;;;;;9.38;5.20;;;;;;;3.23;79.01;94783.97;5098726;27;20023;-75
2024/03/18 02:30:02;;;;;;;7.55;5.07;;;;;;;3.00;80.10;94805.72;5098990;27;20039;-75
2024/03/18 02:32:30;;;;;;;11.50;6.90;;;;;;;3.12;79.71;94797.38;5099149;27;20079;-75
2024/03/18 02:34:56;;;;;;;6.72;4.95;;;;;;;3.12;80.25;94797.38;5115952;27;20481;-76
2024/03/18 02:37:21;;;;;;;7.68;5.20;;;;;;;3.18;80.50;94800.53;5134254;27;20031;-75
2024/03/18 02:39:46;;;;;;;6.43;4.68;;;;;;;3.18;79.53;94797.97;5134130;27;20046;-75
2024/03/18 02:42:12;;;;;;;7.22;4.70;;;;;;;2.97;80.06;94792.22;5114739;27;20048;-76
2024/03/18 02:44:37;;;;;;;8.65;5.72;;;;;;;2.90;80.40;94802.00;5134185;27;20024;-75
2024/03/18 02:47:03;;;;;;;8.70;6.38;;;;;;;3.01;79.33;94804.81;5115578;27;20023;-75
2024/03/18 02:49:28;;;;;;;62.80;27.08;;;;;;;2.66;79.41;94786.97;5097930;27;20039;-75
2024/03/18 02:51:53;;;;;;;9.18;6.13;;;;;;;2.64;80.41;94795.66;5115776;27;20072;-75
2024/03/18 02:54:19;;;;;;;11.88;8.10;;;;;;;2.44;82.33;94789.81;5098700;27;20050;-75
2024/03/18 02:56:44;;;;;;;8.55;6.40;;;;;;;2.59;82.66;94798.47;5115708;27;20027;-75
2024/03/18 02:59:10;;;;;;;8.80;6.07;;;;;;;2.72;81.87;94797.81;5133893;27;20436;-75
2024/03/18 03:01:35;;;;;;;8.75;6.13;;;;;;;2.82;80.85;94791.31;5115718;27;20080;-76
2024/03/18 03:04:01;;;;;;;8.13;5.60;;;;;;;2.59;81.15;94795.06;5115854;27;20488;-75
2024/03/18 03:06:26;;;;;;;7.05;5.13;;;;;;;2.59;81.05;94806.16;5115523;27;20526;-76
2024/03/18 03:08:52;;;;;;;8.98;4.78;;;;;;;2.49;80.67;94776.78;5133831;27;20035;-75
2024/03/18 03:11:17;;;;;;;6.30;4.78;;;;;;;2.41;81.67;94799.41;5133853;27;20517;-75
2024/03/18 03:13:43;;;;;;;6.38;4.78;;;;;;;2.47;80.87;94788.84;5115440;27;20028;-75
2024/03/18 03:16:11;;;;;;;11.57;6.70;;;;;;;2.30;81.79;94787.13;5098378;27;20027;-75
2024/03/18 03:18:37;;;;;;;8.20;5.75;;;;;;;2.50;81.96;94792.97;5118371;27;20457;-75
2024/03/18 03:21:05;;;;;;;6.15;4.35;;;;;;;2.64;82.22;94793.91;5135784;27;20062;-75
2024/03/18 03:23:34;;;;;;;37.47;20.02;;;;;;;2.43;81.06;94787.34;5154441;27;20067;-75
2024/03/18 03:26:00;;;;;;;18.25;11.20;;;;;;;2.40;82.03;94787.50;5119005;27;20058;-75
2024/03/18 03:28:26;;;;;;;11.75;8.32;;;;;;;2.15;83.57;94785.34;5118435;27;20030;-75
2024/03/18 03:31:14;;;;;;;56.28;28.35;;;;;;;2.30;82.48;94783.75;5135386;27;20038;-75
2024/03/18 03:33:39;;;;;;;8.02;6.53;;;;;;;2.08;83.11;94763.50;5135368;27;20441;-76
2024/03/18 03:36:06;;;;;;;6.53;5.38;;;;;;;2.31;83.91;94777.69;5135475;27;20027;-75
2024/03/18 03:38:31;;;;;;;35.15;17.77;;;;;;;2.24;84.22;94779.75;5153767;27;20053;-75
2024/03/18 03:40:56;;;;;;;15.02;9.57;;;;;;;2.15;82.86;94778.50;5118421;27;20043;-75
2024/03/18 03:43:22;;;;;;;17.80;8.60;;;;;;;2.10;84.64;94775.31;5135079;27;20037;-76
2024/03/18 03:45:56;;;;;;;9.85;7.10;;;;;;;2.36;83.96;94775.72;5118173;27;20031;-75
2024/03/18 03:48:25;;;;;;;18.70;10.80;;;;;;;2.21;82.21;94783.31;5101192;27;20026;-75
2024/03/18 03:50:51;;;;;;;11.30;6.75;;;;;;;2.08;83.83;94777.13;5118079;27;20035;-75
2024/03/18 03:53:17;;;;;;;12.68;6.85;;;;;;;2.03;84.70;94771.41;5134881;27;20507;-75
2024/03/18 03:55:43;;;;;;;12.90;8.15;;;;;;;2.11;82.47;94774.41;5117863;27;20039;-75
2024/03/18 03:58:09;;;;;;;20.45;11.38;;;;;;;2.01;83.70;94757.84;5134904;27;20031;-76
2024/03/18 04:00:35;;;;;;;16.10;7.88;;;;;;;2.02;84.98;94751.81;5134766;27;20035;-75
2024/03/18 04:03:00;;;;;;;8.38;5.95;;;;;;;2.26;83.20;94779.66;5117682;27;20476;-75
2024/03/18 04:05:25;;;;;;;7.22;5.22;;;;;;;2.22;82.84;94773.88;5134807;27;20030;-75
2024/03/18 04:07:51;;;;;;;7.30;5.15;;;;;;;2.26;83.53;94777.09;5153238;27;20531;-75
2024/03/18 04:10:16;;;;;;;5.57;4.32;;;;;;;2.43;82.50;94766.84;5134755;27;20033;-75
2024/03/18 04:12:42;;;;;;;13.68;6.25;;;;;;;2.33;81.89;94781.84;5100488;27;20105;-75
2024/03/18 04:15:08;;;;;;;7.68;5.07;;;;;;;2.14;82.42;94761.44;5153387;27;20027;-75
2024/03/18 04:17:34;;;;;;;6.30;4.47;;;;;;;1.99;83.58;94773.28;5153128;27;20019;-75
2024/03/18 04:19:59;;;;;;;7.22;5.07;;;;;;;2.31;82.83;94782.81;5117578;27;21145;-75
2024/03/18 04:22:25;;;;;;;21.40;13.38;;;;;;;2.23;82.84;94776.38;5100221;27;20049;-75
2024/03/18 04:24:52;;;;;;;8.80;6.03;;;;;;;1.99;82.09;94770.75;5134444;27;20040;-75
2024/03/18 04:27:17;;;;;;;9.88;7.07;;;;;;;1.94;83.28;94777.81;5152853;27;20480;-75
2024/03/18 04:29:43;;;;;;;7.43;5.18;;;;;;;1.96;83.44;94770.06;5117074;27;20030;-75
2024/03/18 04:32:10;;;;;;;5.95;4.30;;;;;;;2.13;83.32;94769.22;5117160;27;20033;-76
2024/03/18 04:34:35;;;;;;;6.57;4.45;;;;;;;2.20;82.14;94750.91;5152807;27;20046;-76
2024/03/18 04:37:01;;;;;;;6.65;4.88;;;;;;;2.29;81.78;94777.78;5117340;27;20408;-75
2024/03/18 04:39:27;;;;;;;9.40;4.40;;;;;;;2.15;81.30;94773.38;5152840;27;20047;-75
2024/03/18 04:41:52;;;;;;;5.50;4.20;;;;;;;2.09;82.35;94768.56;5153198;27;20039;-75
2024/03/18 04:44:17;;;;;;;5.32;4.70;;;;;;;2.01;83.71;94765.53;5153366;27;20018;-75
2024/03/18 04:46:43;;;;;;;5.85;4.65;;;;;;;1.84;84.37;94773.22;5117265;27;20502;-75
2024/03/18 04:49:08;;;;;;;15.23;7.28;;;;;;;2.00;82.53;94769.00;5134462;27;20211;-74
2024/03/18 04:51:34;;;;;;;6.57;5.40;;;;;;;2.04;82.90;94778.19;5134218;27;20035;-75
2024/03/18 04:54:00;;;;;;;7.47;5.50;;;;;;;2.06;83.28;94778.94;5117057;27;20030;-75
2024/03/18 04:56:25;;;;;;;31.40;13.00;;;;;;;2.11;81.82;94786.41;5134243;27;20027;-75
2024/03/18 04:58:51;;;;;;;16.38;8.18;;;;;;;2.14;82.09;94797.31;5116833;27;20082;-75
2024/03/18 05:01:17;;;;;;;11.30;7.82;;;;;;;2.14;83.46;94789.63;5152665;27;20046;-76
2024/03/18 05:03:43;;;;;;;11.05;8.13;;;;;;;2.17;83.72;94794.63;5116908;27;20035;-75
2024/03/18 05:06:09;;;;;;;15.15;10.63;;;;;;;1.98;83.96;94807.53;5130600;27;20035;-75
2024/03/18 05:08:34;;;;;;;12.55;9.50;;;;;;;2.10;83.74;94806.09;5128189;27;20034;-75
2024/03/18 05:11:00;;;;;;;13.93;9.68;;;;;;;2.20;83.25;94806.44;5151167;27;20060;-75
2024/03/18 05:13:25;;;;;;;16.02;9.15;;;;;;;1.99;83.77;94798.09;5112476;27;20022;-75
2024/03/18 05:15:51;;;;;;;9.52;6.93;;;;;;;2.17;83.46;94807.44;5136520;27;20038;-75
2024/03/18 05:18:16;;;;;;;11.98;8.60;;;;;;;2.06;84.31;94804.56;5118608;27;20087;-75
2024/03/18 05:20:42;;;;;;;9.30;6.70;;;;;;;2.02;84.38;94803.06;5137641;27;20034;-75
2024/03/18 05:23:07;;;;;;;8.80;6.78;;;;;;;1.92;85.28;94802.72;5120156;27;20508;-75
2024/03/18 05:25:33;;;;;;;18.58;15.13;;;;;;;2.34;84.82;94805.75;5116703;27;20087;-75
2024/03/18 05:27:58;;;;;;;21.80;13.98;;;;;;;2.49;84.23;94806.72;5119816;27;20023;-75
2024/03/18 05:30:23;;;;;;;18.38;12.90;;;;;;;2.55;84.38;94793.56;5135933;27;20027;-75
2024/03/18 05:32:49;;;;;;;13.70;8.75;;;;;;;2.63;83.41;94797.41;5154408;27;20030;-75
2024/03/18 05:35:14;;;;;;;10.30;7.07;;;;;;;2.80;82.64;94811.91;5130069;27;20035;-75
2024/03/18 05:37:40;;;;;;;8.70;6.90;;;;;;;2.80;83.10;94805.94;5122889;27;20038;-75
2024/03/18 05:40:24;;;;;;;7.93;5.63;;;;;;;2.91;83.67;94801.91;5134358;27;20026;-75
2024/03/18 05:42:49;;;;;;;7.28;6.07;;;;;;;2.98;84.20;94811.84;5152363;27;20026;-76
2024/03/18 05:45:15;;;;;;;8.68;5.72;;;;;;;3.62;82.93;94789.53;5134252;27;20046;-75
2024/03/18 05:47:40;;;;;;;6.80;5.18;;;;;;;4.16;80.68;94795.03;5117277;27;20022;-75
2024/03/18 05:50:08;;;;;;;6.95;5.25;;;;;;;4.12;80.68;94773.78;5136257;27;20515;-75
2024/03/18 05:52:33;;;;;;;6.93;4.80;;;;;;;5.20;75.92;94778.47;5117836;27;20559;-75
2024/03/18 05:54:58;;;;;;;7.85;6.65;;;;;;;5.68;74.92;94796.06;5116946;27;20042;-75
2024/03/18 05:57:24;;;;;;;8.25;6.07;;;;;;;5.81;73.54;94774.56;5117662;27;20030;-75
2024/03/18 05:59:50;;;;;;;12.07;8.88;;;;;;;6.21;72.50;94795.22;5114438;27;20405;-76
2024/03/18 06:02:15;;;;;;;8.52;7.00;;;;;;;6.64;70.90;94789.78;5134211;27;20027;-75
2024/03/18 06:04:41;;;;;;;8.95;6.50;;;;;;;6.77;70.37;94789.78;5100097;27;20080;-75
2024/03/18 06:07:06;;;;;;;6.03;5.22;;;;;;;7.01;69.68;94774.34;5146078;27;20035;-76
2024/03/18 06:09:31;;;;;;;7.85;5.97;;;;;;;7.43;69.21;94776.59;5117138;27;20481;-76
2024/03/18 06:11:57;;;;;;;8.00;6.05;;;;;;;8.30;67.79;94778.00;5129302;27;20035;-75
2024/03/18 06:14:22;;;;;;;8.25;5.50;;;;;;;9.25;62.53;94765.63;5119435;27;20034;-76
2024/03/18 06:16:48;;;;;;;9.55;6.30;;;;;;;9.89;61.02;94751.91;5115557;27;20023;-75
2024/03/18 06:19:15;;;;;;;7.82;5.70;;;;;;;10.42;59.41;94772.66;5108440;27;20416;-76
2024/03/18 06:21:45;;;;;;;11.05;7.88;;;;;;;11.71;56.82;94750.44;5137339;27;20027;-76
2024/03/18 06:24:19;;;;;;;11.82;9.10;;;;;;;13.28;52.91;94769.13;5119925;27;20022;-76
2024/03/18 06:26:45;;;;;;;16.40;13.18;;;;;;;14.44;48.79;94749.22;5111758;27;20122;-76
2024/03/18 06:29:10;;;;;;;19.40;13.75;;;;;;;15.13;45.33;94765.84;5155181;27;20449;-76
2024/03/18 06:31:36;;;;;;;20.35;15.75;;;;;;;15.39;44.25;94755.34;5111134;27;20063;-76
2024/03/18 06:34:01;;;;;;;25.13;16.83;;;;;;;15.15;46.00;94763.06;5120878;27;20488;-76
2024/03/18 06:36:27;;;;;;;21.70;15.05;;;;;;;16.84;41.77;94761.94;5135913;27;20488;-76
2024/03/18 06:38:52;;;;;;;19.45;14.93;;;;;;;17.10;41.82;94768.78;5136595;27;20055;-76
2024/03/18 06:41:17;;;;;;;17.73;13.57;;;;;;;16.06;43.74;94767.66;5115673;27;20035;-74
2024/03/18 06:43:43;;;;;;;19.52;13.77;;;;;;;15.00;45.23;94773.31;5130948;27;20040;-72
2024/03/18 06:46:11;;;;;;;17.77;13.95;;;;;;;13.39;49.43;94770.72;5155021;27;20079;-73
2024/03/18 06:48:36;;;;;;;23.05;15.13;;;;;;;12.73;51.44;94769.00;5150289;27;20112;-73
2024/03/18 06:51:02;;;;;;;14.15;11.32;;;;;;;11.80;53.57;94767.81;5154057;27;20160;-73
2024/03/18 06:53:28;;;;;;;16.98;12.65;;;;;;;10.93;56.46;94760.63;5121431;27;20062;-76
2024/03/18 06:55:53;;;;;;;17.40;12.48;;;;;;;10.51;58.32;94760.69;5139268;27;20499;-76
2024/03/18 06:58:21;;;;;;;16.40;12.50;;;;;;;10.16;59.85;94761.78;5153866;27;20041;-76
2024/03/18 07:00:47;;;;;;;18.45;13.20;;;;;;;10.71;59.07;94746.03;5149118;27;20034;-76
2024/03/18 07:03:12;;;;;;;20.70;12.95;;;;;;;10.82;58.08;94763.31;5117821;27;20087;-76
2024/03/18 07:05:38;;;;;;;22.27;12.98;;;;;;;10.76;58.64;94754.25;5134531;27;20029;-76
2024/03/18 07:08:04;;;;;;;20.90;14.20;;;;;;;10.21;60.82;94772.63;5152321;27;20018;-76
2024/03/18 07:10:30;;;;;;;19.48;13.07;;;;;;;10.17;60.78;94758.25;5133392;27;20037;-76
2024/03/18 07:12:56;;;;;;;20.42;13.43;;;;;;;10.19;60.41;94758.94;5150977;27;20026;-75
2024/03/18 07:15:21;;;;;;;19.77;12.80;;;;;;;10.19;60.91;94752.91;5151887;27;20035;-77
2024/03/18 07:17:46;;;;;;;18.08;13.85;;;;;;;10.22;61.47;94740.53;5150424;27;20479;-76
2024/03/18 07:20:12;;;;;;;16.45;12.93;;;;;;;10.06;61.20;94735.75;5151559;27;20041;-76
2024/03/18 07:22:39;;;;;;;17.67;11.95;;;;;;;9.94;61.87;94754.09;5134521;27;20049;-79
2024/03/18 07:25:08;;;;;;;18.55;12.00;;;;;;;9.99;61.67;94746.78;5135250;27;20118;-77
2024/03/18 07:27:36;;;;;;;17.73;12.05;;;;;;;10.20;60.92;94739.81;5118721;27;20034;-77
2024/03/18 07:30:02;;;;;;;20.10;12.88;;;;;;;9.85;61.54;94706.38;5135803;27;20090;-77
2024/03/18 07:32:28;;;;;;;17.83;13.13;;;;;;;10.05;61.10;94738.47;5134794;27;20054;-77
2024/03/18 07:34:53;;;;;;;18.67;12.32;;;;;;;10.28;61.09;94744.44;5100029;27;20384;-77
2024/03/18 07:37:19;;;;;;;15.75;11.52;;;;;;;10.44;60.47;94728.38;5154099;27;20039;-77
2024/03/18 07:39:48;;;;;;;17.27;11.50;;;;;;;10.23;60.67;94720.56;5118372;27;20042;-77
2024/03/18 07:42:13;;;;;;;22.30;11.23;;;;;;;10.61;60.60;94719.97;5153977;27;20484;-77
2024/03/18 07:44:42;;;;;;;13.95;10.80;;;;;;;10.99;58.58;94718.50;5118613;27;20082;-77
2024/03/18 07:47:08;;;;;;;17.83;10.95;;;;;;;10.67;59.51;94703.06;5118417;27;20034;-77
2024/03/18 07:49:37;;;;;;;13.27;10.32;;;;;;;10.77;58.55;94709.13;5118897;27;20030;-77
2024/03/18 07:52:04;;;;;;;16.00;10.10;;;;;;;10.46;59.27;94710.91;5118413;27;20404;-77
2024/03/18 07:54:30;;;;;;;13.73;9.70;;;;;;;10.60;59.12;94702.75;5135725;27;20103;-77
2024/03/18 07:56:56;;;;;;;11.85;9.40;;;;;;;10.74;58.46;94693.78;5135464;27;20076;-77
2024/03/18 07:59:21;;;;;;;16.88;10.48;;;;;;;10.57;58.55;94697.00;5101377;27;20447;-78
2024/03/18 08:01:46;;;;;;;13.38;10.10;;;;;;;10.48;58.97;94685.63;5153651;27;20079;-77
2024/03/18 08:04:12;;;;;;;17.10;9.95;;;;;;;10.51;60.04;94674.97;5135537;27;20027;-77
2024/03/18 08:06:41;;;;;;;14.60;9.70;;;;;;;10.67;59.33;94700.44;5135445;27;20031;-78
2024/03/18 08:09:06;;;;;;;14.63;9.35;;;;;;;11.43;57.45;94695.63;5153757;27;20038;-78
2024/03/18 08:11:32;;;;;;;11.40;9.18;;;;;;;11.57;56.53;94684.81;5134997;27;20502;-77
2024/03/18 08:13:57;;;;;;;13.18;8.68;;;;;;;11.68;56.39;94685.66;5153784;27;20508;-77
2024/03/18 08:16:22;;;;;;;11.60;8.60;;;;;;;11.03;57.97;94667.91;5153873;27;20468;-78
2024/03/18 08:18:48;;;;;;;11.52;7.90;;;;;;;11.45;57.13;94682.47;5135007;27;20027;-77
2024/03/18 08:21:13;;;;;;;13.18;8.38;;;;;;;11.31;56.97;94681.06;5134798;27;20023;-77
2024/03/18 08:23:39;;;;;;;11.63;8.20;;;;;;;11.75;55.39;94674.53;5135258;27;20022;-77
2024/03/18 08:26:04;;;;;;;10.13;8.30;;;;;;;11.58;56.55;94664.81;5153699;27;20031;-78
2024/03/18 08:28:30;;;;;;;11.15;7.90;;;;;;;11.59;56.04;94666.47;5134988;27;20019;-78
2024/03/18 08:30:56;;;;;;;10.98;8.02;;;;;;;11.37;56.47;94676.19;5134782;27;20034;-77
2024/03/18 08:33:22;;;;;;;11.95;8.00;;;;;;;11.28;58.09;94661.41;5153242;27;20491;-77
2024/03/18 08:35:51;;;;;;;12.57;7.80;;;;;;;11.80;55.97;94676.75;5135168;27;20030;-77
2024/03/18 08:38:16;;;;;;;8.75;6.47;;;;;;;12.22;52.88;94660.81;5153124;27;20043;-78
2024/03/18 08:40:42;;;;;;;10.25;7.05;;;;;;;11.84;54.44;94667.72;5134526;27;20039;-78
2024/03/18 08:43:08;;;;;;;9.52;7.25;;;;;;;11.74;54.67;94657.28;5134844;27;20480;-77
2024/03/18 08:45:34;;;;;;;11.07;7.10;;;;;;;11.81;55.20;94654.94;5152569;27;20404;-78
2024/03/18 08:47:59;;;;;;;14.15;7.68;;;;;;;11.96;55.21;94660.59;5134648;27;20511;-77
2024/03/18 08:50:25;;;;;;;11.00;7.30;;;;;;;11.76;54.86;94664.97;5134665;27;20042;-78
2024/03/18 08:52:50;;;;;;;11.48;7.55;;;;;;;11.67;54.40;94657.97;5153566;27;20030;-77
2024/03/18 08:55:15;;;;;;;9.43;6.85;;;;;;;11.55;53.85;94662.50;5153138;27;20429;-78
2024/03/18 08:57:41;;;;;;;8.77;6.63;;;;;;;12.33;51.08;94663.25;5134422;27;20027;-78
2024/03/18 09:00:10;;;;;;;9.90;7.18;;;;;;;12.44;51.49;94664.88;5117154;27;20058;-77
2024/03/18 09:02:37;;;;;;;9.18;6.75;;;;;;;12.11;53.09;94663.59;5152966;27;20034;-78
2024/03/18 09:05:02;;;;;;;11.18;7.65;;;;;;;12.37;51.56;94654.22;5100467;27;20125;-77
2024/03/18 09:07:29;;;;;;;12.32;7.13;;;;;;;12.52;52.08;94647.56;5153217;27;20030;-78
2024/03/18 09:09:55;;;;;;;10.88;7.32;;;;;;;12.25;53.38;94652.72;5134508;27;20037;-78
2024/03/18 09:12:21;;;;;;;14.77;8.00;;;;;;;12.03;53.61;94652.06;5134622;27;20031;-78
2024/03/18 09:14:46;;;;;;;12.27;8.65;;;;;;;12.04;53.71;94645.09;5134500;27;20031;-77
2024/03/18 09:17:11;;;;;;;14.40;8.60;;;;;;;12.27;52.82;94648.19;5152736;27;20015;-78
2024/03/18 09:19:40;;;;;;;12.60;8.85;;;;;;;12.80;51.15;94628.53;5117021;27;20404;-77
2024/03/18 09:22:08;;;;;;;12.55;8.93;;;;;;;12.80;52.57;94631.94;5118003;27;20031;-78
2024/03/18 09:24:34;;;;;;;11.80;8.55;;;;;;;12.91;51.96;94633.53;5153003;27;20224;-78
2024/03/18 09:27:02;;;;;;;13.05;8.98;;;;;;;12.45;53.80;94635.25;5134500;27;20058;-77
2024/03/18 09:29:28;;;;;;;13.05;8.65;;;;;;;12.57;52.07;94625.47;5133965;27;20034;-78
2024/03/18 09:31:54;;;;;;;11.38;8.38;;;;;;;12.39;52.46;94628.81;5134458;27;20034;-77
2024/03/18 09:34:19;;;;;;;14.82;8.57;;;;;;;12.36;51.41;94629.09;5134297;27;20472;-78
2024/03/18 09:36:44;;;;;;;14.27;9.00;;;;;;;12.28;52.08;94618.56;5153351;27;20039;-77
2024/03/18 09:39:10;;;;;;;9.18;7.55;;;;;;;12.28;51.54;94608.16;5152525;27;20521;-78
2024/03/18 09:41:36;;;;;;;12.57;8.20;;;;;;;12.16;52.66;94604.09;5153180;27;20031;-77
2024/03/18 09:44:02;;;;;;;12.38;7.97;;;;;;;12.05;51.76;94576.44;5117947;27;20046;-77
2024/03/18 09:46:28;;;;;;;12.48;8.07;;;;;;;12.35;52.05;94598.81;5134289;27;20110;-78
2024/03/18 09:48:53;;;;;;;13.30;7.28;;;;;;;12.19;51.55;94589.00;5133921;27;20025;-77
2024/03/18 09:51:19;;;;;;;11.55;7.35;;;;;;;12.49;51.11;94585.31;5117027;27;20094;-78
2024/03/18 09:53:47;;;;;;;10.38;7.70;;;;;;;12.50;51.21;94592.16;5152934;27;20019;-78
2024/03/18 09:56:14;;;;;;;9.27;7.50;;;;;;;12.68;51.08;94581.00;5117996;27;20039;-78
2024/03/18 09:58:40;;;;;;;8.75;6.53;;;;;;;12.43;50.62;94549.44;5137164;27;20539;-78
2024/03/18 10:01:05;;;;;;;11.63;6.15;;;;;;;12.69;49.97;94586.03;5156634;27;20026;-78
2024/03/18 10:03:30;;;;;;;8.38;5.65;;;;;;;12.83;48.65;94579.53;5103359;27;20041;-78
2024/03/18 10:05:56;;;;;;;9.52;6.20;;;;;;;13.26;48.56;94572.84;5156360;27;20027;-78
2024/03/18 10:08:21;;;;;;;8.10;5.40;;;;;;;13.11;48.12;94553.41;5137377;27;20026;-78
2024/03/18 10:10:50;;;;;;;7.90;5.60;;;;;;;13.35;46.64;94514.53;5120631;27;20030;-78
2024/03/18 10:13:16;;;;;;;10.18;5.50;;;;;;;13.66;46.61;94561.09;5137606;27;20567;-78
2024/03/18 10:15:42;;;;;;;7.75;4.82;;;;;;;13.40;46.58;94543.59;5137562;27;20066;-78
2024/03/18 10:18:11;;;;;;;10.50;5.13;;;;;;;13.36;47.18;94541.44;5155599;27;20033;-78
2024/03/18 10:20:38;;;;;;;7.25;4.82;;;;;;;13.85;45.07;94540.00;5137428;27;20493;-78
2024/03/18 10:23:03;;;;;;;7.22;4.78;;;;;;;13.63;45.15;94549.16;5155718;27;20079;-78
2024/03/18 10:25:28;;;;;;;8.70;4.70;;;;;;;13.66;45.36;94534.97;5120208;27;20030;-78
2024/03/18 10:27:54;;;;;;;7.65;5.70;;;;;;;13.62;46.73;94531.03;5136939;27;20064;-77
2024/03/18 10:30:20;;;;;;;8.75;3.80;;;;;;;13.58;43.56;94525.28;5120142;27;20485;-77
2024/03/18 10:32:46;;;;;;;4.38;3.65;;;;;;;13.62;45.26;94525.81;5120009;27;20022;-78
2024/03/18 10:35:25;;;;;;;4.28;2.03;;;;;;;13.72;42.05;94521.31;5137215;27;20061;-78
2024/03/18 10:38:11;;;;;;;4.72;1.70;;;;;;;13.58;41.01;94519.25;5120574;27;20037;-78
2024/03/18 10:40:38;;;;;;;7.97;1.40;;;;;;;14.00;40.33;94518.53;5136273;27;20039;-78
2024/03/18 10:43:07;;;;;;;2.72;1.42;;;;;;;13.93;39.32;94512.28;5120048;27;20079;-78
2024/03/18 10:45:33;;;;;;;3.80;2.70;;;;;;;14.34;40.26;94505.47;5136916;27;20077;-78
2024/03/18 10:48:07;;;;;;;2.25;1.40;;;;;;;14.48;39.38;94507.47;5102888;27;20026;-78
2024/03/18 10:50:33;;;;;;;5.60;1.92;;;;;;;14.59;39.47;94519.47;5120047;27;20045;-78
2024/03/18 10:52:59;;;;;;;3.78;1.70;;;;;;;14.14;39.22;94507.50;5136626;27;20019;-78
2024/03/18 10:55:26;;;;;;;4.60;1.70;;;;;;;13.98;39.42;94489.97;5119786;27;20038;-78
2024/03/18 10:58:01;;;;;;;2.75;1.70;;;;;;;14.21;39.18;94500.69;5119661;27;20069;-79
2024/03/18 11:00:27;;;;;;;2.38;1.70;;;;;;;14.01;39.49;94489.69;5121190;27;20038;-78
2024/03/18 11:02:59;;;;;;;2.90;1.90;;;;;;;14.22;39.83;94491.88;5119335;27;20053;-78
2024/03/18 11:05:26;;;;;;;2.92;1.75;;;;;;;14.17;39.48;94496.75;5136447;27;20034;-78
2024/03/18 11:07:53;;;;;;;3.13;1.80;;;;;;;14.22;39.73;94455.31;5119797;27;20093;-78
2024/03/18 11:10:18;;;;;;;2.70;1.70;;;;;;;14.47;39.80;94490.19;5135525;27;20031;-78
2024/03/18 11:12:44;;;;;;;2.75;1.73;;;;;;;14.67;37.67;94476.88;5136446;27;20022;-78
2024/03/18 11:15:09;;;;;;;2.40;1.65;;;;;;;14.97;37.79;94471.03;5102077;27;20034;-78
2024/03/18 11:17:50;;;;;;;3.17;1.50;;;;;;;15.08;37.10;94463.84;5136309;27;20030;-78
2024/03/18 11:20:19;;;;;;;3.88;1.50;;;;;;;15.12;36.43;94457.31;5154976;27;20045;-78
2024/03/18 11:22:49;;;;;;;2.65;1.50;;;;;;;15.24;37.69;94445.53;5136756;27;20481;-79
2024/03/18 11:25:15;;;;;;;5.85;1.67;;;;;;;15.31;38.86;94458.78;5136029;27;20030;-79
2024/03/18 11:27:48;;;;;;;3.05;2.00;;;;;;;15.57;38.37;94446.34;5135835;27;20442;-79